createdAt,value
2022-12-18T00:00:18.888Z,-10.74
2022-12-18T00:01:51.201Z,-10.74
2022-12-18T00:03:23.043Z,-10.77
2022-12-18T00:04:54.797Z,-10.83
2022-12-18T00:06:28.561Z,-10.98
2022-12-18T00:08:00.208Z,-11.03
2022-12-18T00:09:39.742Z,-11.03
2022-12-18T00:11:14.462Z,-10.96
2022-12-18T00:12:46.008Z,-11.25
2022-12-18T00:14:17.779Z,-11.20
2022-12-18T00:15:49.409Z,-11.17
2022-12-18T00:17:20.946Z,-11.15
2022-12-18T00:18:54.898Z,-11.02
2022-12-18T00:20:26.796Z,-11.06
2022-12-18T00:21:59.157Z,-11.15
2022-12-18T00:23:31.734Z,-11.27
2022-12-18T00:25:03.654Z,-11.24
2022-12-18T00:26:36.645Z,-11.23
2022-12-18T00:28:08.438Z,-11.12
2022-12-18T00:29:41.267Z,-11.34
2022-12-18T00:31:16.216Z,-11.46
2022-12-18T00:32:47.846Z,-11.50
2022-12-18T00:34:19.518Z,-11.55
2022-12-18T00:35:51.086Z,-11.55
2022-12-18T00:37:22.806Z,-11.53
2022-12-18T00:38:58.018Z,-11.40
2022-12-18T00:40:29.608Z,-11.47
2022-12-18T00:42:19.452Z,-11.38
2022-12-18T00:43:51.016Z,-11.48
2022-12-18T00:45:27.578Z,-11.51
2022-12-18T00:46:59.591Z,-11.58
2022-12-18T00:48:31.276Z,-11.50
2022-12-18T00:50:02.910Z,-11.56
2022-12-18T00:51:34.648Z,-11.69
2022-12-18T00:53:06.249Z,-11.64
2022-12-18T00:54:37.818Z,-11.58
2022-12-18T00:56:09.588Z,-11.74
2022-12-18T00:57:41.694Z,-11.81
2022-12-18T00:59:13.223Z,-11.76
2022-12-18T01:00:44.937Z,-11.75
2022-12-18T01:02:16.744Z,-11.68
2022-12-18T01:03:48.855Z,-11.56
2022-12-18T01:05:21.584Z,-11.61
2022-12-18T01:06:53.155Z,-11.61
2022-12-18T01:08:24.913Z,-11.59
2022-12-18T01:09:56.431Z,-11.59
2022-12-18T01:11:27.991Z,-11.74
2022-12-18T01:12:59.759Z,-11.68
2022-12-18T01:14:31.406Z,-11.70
2022-12-18T01:16:04.721Z,-11.70
2022-12-18T01:17:36.327Z,-11.62
2022-12-18T01:19:07.952Z,-11.65
2022-12-18T01:20:39.572Z,-11.66
2022-12-18T01:22:11.157Z,-11.62
2022-12-18T01:23:43.247Z,-11.68
2022-12-18T01:25:14.835Z,-11.73
2022-12-18T01:26:46.812Z,-11.74
2022-12-18T01:28:19.736Z,-11.63
2022-12-18T01:29:51.509Z,-11.86
2022-12-18T01:31:28.932Z,-11.87
2022-12-18T01:33:00.491Z,-11.90
2022-12-18T01:34:32.089Z,-11.90
2022-12-18T01:36:03.743Z,-11.83
2022-12-18T01:37:35.274Z,-11.95
2022-12-18T01:39:16.448Z,-11.99
2022-12-18T01:40:48.063Z,-12.03
2022-12-18T01:42:19.654Z,-12.11
2022-12-18T01:43:58.429Z,-12.12
2022-12-18T01:45:32.724Z,-12.09
2022-12-18T01:47:04.386Z,-12.02
2022-12-18T01:48:36.056Z,-12.07
2022-12-18T01:50:25.525Z,-12.06
2022-12-18T01:51:58.719Z,-12.04
2022-12-18T01:53:30.270Z,-12.16
2022-12-18T01:55:05.957Z,-12.08
2022-12-18T01:56:37.796Z,-12.22
2022-12-18T01:58:11.106Z,-12.10
2022-12-18T01:59:46.162Z,-12.10
2022-12-18T02:01:17.895Z,-12.19
2022-12-18T02:02:49.747Z,-12.26
2022-12-18T02:04:26.297Z,-12.34
2022-12-18T02:06:19.376Z,-12.46
2022-12-18T02:08:16.541Z,-12.43
2022-12-18T02:09:57.849Z,-12.37
2022-12-18T02:11:38.354Z,-12.33
2022-12-18T02:13:28.146Z,-12.37
2022-12-18T02:15:25.279Z,-12.38
2022-12-18T02:17:19.063Z,-12.38
2022-12-18T02:18:57.681Z,-12.39
2022-12-18T02:20:36.073Z,-12.43
2022-12-18T02:22:25.827Z,-12.42
2022-12-18T02:24:08.970Z,-12.26
2022-12-18T02:26:28.751Z,-12.28
2022-12-18T02:28:02.969Z,-12.31
2022-12-18T02:29:38.677Z,-12.29
2022-12-18T02:31:16.117Z,-12.30
2022-12-18T02:32:52.768Z,-12.19
2022-12-18T02:34:30.130Z,-12.14
2022-12-18T02:36:03.299Z,-12.11
2022-12-18T02:37:40.139Z,-12.04
2022-12-18T02:39:14.562Z,-12.00
2022-12-18T02:40:55.654Z,-12.06
2022-12-18T02:42:29.063Z,-12.01
2022-12-18T02:44:02.937Z,-11.88
2022-12-18T02:45:36.583Z,-11.94
2022-12-18T02:47:12.437Z,-11.91
2022-12-18T02:48:44.674Z,-11.88
2022-12-18T02:50:38.983Z,-11.85
2022-12-18T02:52:39.453Z,-11.72
2022-12-18T02:54:35.078Z,-11.82
2022-12-18T02:56:33.905Z,-11.79
2022-12-18T02:58:17.242Z,-11.70
2022-12-18T02:59:59.349Z,-11.71
2022-12-18T03:01:37.160Z,-11.65
2022-12-18T03:03:31.191Z,-11.63
2022-12-18T03:05:17.540Z,-11.66
2022-12-18T03:06:55.865Z,-11.59
2022-12-18T03:08:32.498Z,-11.57
2022-12-18T03:10:07.290Z,-11.54
2022-12-18T03:12:01.453Z,-11.49
2022-12-18T03:13:59.522Z,-11.63
2022-12-18T03:15:45.348Z,-11.63
2022-12-18T03:17:23.476Z,-11.58
2022-12-18T03:19:02.749Z,-11.52
2022-12-18T03:20:38.051Z,-11.55
2022-12-18T03:22:11.151Z,-11.59
2022-12-18T03:23:51.833Z,-11.67
2022-12-18T03:25:26.799Z,-11.74
2022-12-18T03:27:03.547Z,-11.66
2022-12-18T03:28:40.694Z,-11.70
2022-12-18T03:30:15.391Z,-11.67
2022-12-18T03:31:54.716Z,-11.65
2022-12-18T03:33:28.557Z,-11.61
2022-12-18T03:35:05.584Z,-11.57
2022-12-18T03:36:41.181Z,-11.57
2022-12-18T03:38:13.473Z,-11.54
2022-12-18T03:39:49.258Z,-11.52
2022-12-18T03:41:30.593Z,-11.46
2022-12-18T03:43:40.757Z,-11.35
2022-12-18T03:45:22.643Z,-11.28
2022-12-18T03:47:01.126Z,-11.31
2022-12-18T03:48:40.205Z,-11.35
2022-12-18T03:50:38.944Z,-11.34
2022-12-18T03:52:37.179Z,-11.20
2022-12-18T03:54:10.976Z,-11.14
2022-12-18T03:55:48.717Z,-11.17
2022-12-18T03:57:24.988Z,-11.20
2022-12-18T03:59:01.529Z,-11.29
2022-12-18T04:00:35.719Z,-11.34
2022-12-18T04:02:13.060Z,-11.38
2022-12-18T04:03:46.907Z,-11.38
2022-12-18T04:05:21.143Z,-11.36
2022-12-18T04:06:53.885Z,-11.36
2022-12-18T04:08:26.647Z,-11.42
2022-12-18T04:10:13.046Z,-11.37
2022-12-18T04:11:47.561Z,-11.56
2022-12-18T04:13:25.452Z,-11.84
2022-12-18T04:14:57.257Z,-11.94
2022-12-18T04:16:29.417Z,-11.90
2022-12-18T04:18:04.913Z,-11.80
2022-12-18T04:19:43.856Z,-11.89
2022-12-18T04:21:16.114Z,-11.95
2022-12-18T04:22:47.791Z,-11.93
2022-12-18T04:24:19.497Z,-11.89
2022-12-18T04:26:01.422Z,-12.01
2022-12-18T04:27:45.330Z,-11.93
2022-12-18T04:29:17.374Z,-12.12
2022-12-18T04:30:49.014Z,-12.19
2022-12-18T04:32:21.333Z,-12.06
2022-12-18T04:33:53.734Z,-12.20
2022-12-18T04:35:26.084Z,-12.25
2022-12-18T04:36:57.718Z,-12.22
2022-12-18T04:38:30.111Z,-12.23
2022-12-18T04:40:09.363Z,-12.31
2022-12-18T04:41:46.012Z,-12.26
2022-12-18T04:43:18.686Z,-12.21
2022-12-18T04:44:50.353Z,-12.22
2022-12-18T04:46:22.071Z,-12.13
2022-12-18T04:47:53.681Z,-12.38
2022-12-18T04:49:25.327Z,-12.56
2022-12-18T04:50:56.853Z,-12.49
2022-12-18T04:52:28.786Z,-12.39
2022-12-18T04:54:01.200Z,-12.34
2022-12-18T04:55:32.814Z,-12.43
2022-12-18T04:57:04.513Z,-12.49
2022-12-18T04:58:37.102Z,-12.51
2022-12-18T05:00:10.128Z,-12.58
2022-12-18T05:01:42.027Z,-12.68
2022-12-18T05:03:14.034Z,-12.54
2022-12-18T05:04:45.725Z,-12.62
2022-12-18T05:06:17.315Z,-12.67
2022-12-18T05:07:48.874Z,-12.78
2022-12-18T05:09:20.412Z,-12.60
2022-12-18T05:11:09.559Z,-12.44
2022-12-18T05:12:59.038Z,-12.38
2022-12-18T05:14:32.399Z,-12.34
2022-12-18T05:16:04.465Z,-12.31
2022-12-18T05:17:36.034Z,-12.28
2022-12-18T05:19:07.614Z,-12.42
2022-12-18T05:20:39.234Z,-12.39
2022-12-18T05:22:11.008Z,-12.33
2022-12-18T05:23:43.085Z,-12.24
2022-12-18T05:25:15.102Z,-12.15
2022-12-18T05:26:46.697Z,-12.18
2022-12-18T05:28:18.291Z,-12.13
2022-12-18T05:29:49.788Z,-12.41
2022-12-18T05:31:21.431Z,-12.35
2022-12-18T05:32:53.055Z,-12.34
2022-12-18T05:34:25.106Z,-12.27
2022-12-18T05:36:01.892Z,-12.27
2022-12-18T05:37:35.876Z,-12.30
2022-12-18T05:39:11.297Z,-12.21
2022-12-18T05:40:44.453Z,-12.16
2022-12-18T05:42:16.056Z,-12.19
2022-12-18T05:43:47.622Z,-12.10
2022-12-18T05:45:19.221Z,-12.07
2022-12-18T05:46:50.782Z,-11.99
2022-12-18T05:48:22.868Z,-11.94
2022-12-18T05:49:54.442Z,-11.78
2022-12-18T05:51:26.097Z,-11.82
2022-12-18T05:52:57.693Z,-11.82
2022-12-18T05:54:29.398Z,-11.93
2022-12-18T05:56:03.394Z,-12.07
2022-12-18T05:57:35.012Z,-12.10
2022-12-18T05:59:06.647Z,-12.02
2022-12-18T06:00:41.013Z,-12.08
2022-12-18T06:02:12.680Z,-12.13
2022-12-18T06:03:45.159Z,-12.19
2022-12-18T06:05:17.251Z,-12.22
2022-12-18T06:06:48.802Z,-12.22
2022-12-18T06:08:20.417Z,-12.19
2022-12-18T06:09:51.999Z,-12.32
2022-12-18T06:11:26.362Z,-12.25
2022-12-18T06:12:57.974Z,-12.32
2022-12-18T06:14:29.573Z,-12.26
2022-12-18T06:16:04.469Z,-12.26
2022-12-18T06:17:37.956Z,-12.18
2022-12-18T06:19:16.178Z,-12.13
2022-12-18T06:20:58.590Z,-11.98
2022-12-18T06:22:32.125Z,-11.97
2022-12-18T06:24:03.773Z,-12.05
2022-12-18T06:25:39.126Z,-12.15
2022-12-18T06:27:11.184Z,-12.17
2022-12-18T06:28:43.193Z,-12.29
2022-12-18T06:30:15.254Z,-12.33
2022-12-18T06:31:46.950Z,-12.32
2022-12-18T06:33:18.683Z,-12.34
2022-12-18T06:34:50.392Z,-12.37
2022-12-18T06:36:22.364Z,-12.39
2022-12-18T06:37:53.974Z,-12.30
2022-12-18T06:39:25.904Z,-12.11
2022-12-18T06:40:57.548Z,-12.00
2022-12-18T06:42:30.231Z,-11.95
2022-12-18T06:44:01.832Z,-11.93
2022-12-18T06:45:33.469Z,-12.14
2022-12-18T06:47:05.088Z,-12.28
2022-12-18T06:48:36.812Z,-12.37
2022-12-18T06:50:08.453Z,-12.33
2022-12-18T06:51:40.081Z,-12.32
2022-12-18T06:53:11.889Z,-12.40
2022-12-18T06:54:43.507Z,-12.41
2022-12-18T06:56:15.464Z,-12.39
2022-12-18T06:57:47.153Z,-12.30
2022-12-18T06:59:18.853Z,-12.23
2022-12-18T07:00:50.471Z,-12.07
2022-12-18T07:02:22.449Z,-12.04
2022-12-18T07:03:56.320Z,-12.05
2022-12-18T07:05:27.916Z,-12.21
2022-12-18T07:06:59.472Z,-12.16
2022-12-18T07:08:32.493Z,-12.14
2022-12-18T07:10:04.552Z,-12.19
2022-12-18T07:11:36.565Z,-12.27
2022-12-18T07:13:08.101Z,-12.18
2022-12-18T07:14:39.694Z,-12.31
2022-12-18T07:16:22.615Z,-12.33
2022-12-18T07:17:56.687Z,-12.49
2022-12-18T07:19:28.263Z,-12.52
2022-12-18T07:21:05.333Z,-12.46
2022-12-18T07:22:36.907Z,-12.43
2022-12-18T07:24:08.713Z,-12.47
2022-12-18T07:25:40.754Z,-12.61
2022-12-18T07:27:12.283Z,-12.54
2022-12-18T07:28:43.878Z,-12.57
2022-12-18T07:30:15.554Z,-12.40
2022-12-18T07:31:47.132Z,-12.46
2022-12-18T07:33:18.787Z,-12.45
2022-12-18T07:34:50.380Z,-12.50
2022-12-18T07:36:23.504Z,-12.53
2022-12-18T07:37:55.134Z,-12.60
2022-12-18T07:39:26.813Z,-12.61
2022-12-18T07:41:02.949Z,-12.73
2022-12-18T07:42:34.583Z,-12.64
2022-12-18T07:44:06.107Z,-12.60
2022-12-18T07:45:37.741Z,-12.62
2022-12-18T07:47:12.192Z,-12.70
2022-12-18T07:48:48.304Z,-12.76
2022-12-18T07:50:21.669Z,-12.73
2022-12-18T07:51:57.013Z,-12.81
2022-12-18T07:53:28.594Z,-12.68
2022-12-18T07:55:00.182Z,-12.54
2022-12-18T07:56:31.809Z,-12.38
2022-12-18T07:58:04.919Z,-12.28
2022-12-18T07:59:36.738Z,-12.34
2022-12-18T08:01:13.108Z,-12.21
2022-12-18T08:02:44.940Z,-12.13
2022-12-18T08:04:16.654Z,-12.08
2022-12-18T08:05:51.439Z,-12.02
2022-12-18T08:07:23.189Z,-11.91
2022-12-18T08:08:56.388Z,-11.74
2022-12-18T08:10:28.068Z,-11.57
2022-12-18T08:11:59.650Z,-11.62
2022-12-18T08:13:31.522Z,-11.56
2022-12-18T08:15:03.338Z,-11.55
2022-12-18T08:16:35.717Z,-11.58
2022-12-18T08:18:11.348Z,-11.61
2022-12-18T08:19:45.656Z,-11.68
2022-12-18T08:21:20.761Z,-11.80
2022-12-18T08:22:53.143Z,-11.75
2022-12-18T08:24:24.768Z,-11.68
2022-12-18T08:25:59.006Z,-11.86
2022-12-18T08:27:30.694Z,-11.86
2022-12-18T08:29:02.442Z,-11.95
2022-12-18T08:30:34.180Z,-11.87
2022-12-18T08:32:06.000Z,-11.96
2022-12-18T08:33:39.323Z,-11.95
2022-12-18T08:35:12.720Z,-12.12
2022-12-18T08:36:44.382Z,-11.99
2022-12-18T08:38:16.072Z,-11.84
2022-12-18T08:39:48.218Z,-11.76
2022-12-18T08:41:21.313Z,-11.73
2022-12-18T08:43:11.706Z,-11.80
2022-12-18T08:44:43.408Z,-11.73
2022-12-18T08:46:16.558Z,-11.63
2022-12-18T08:47:48.468Z,-11.59
2022-12-18T08:49:20.227Z,-11.55
2022-12-18T08:50:56.969Z,-11.66
2022-12-18T08:52:29.321Z,-11.71
2022-12-18T08:54:01.129Z,-11.57
2022-12-18T08:55:33.343Z,-11.56
2022-12-18T08:57:05.031Z,-11.56
2022-12-18T08:58:36.793Z,-11.45
2022-12-18T09:00:09.342Z,-11.43
2022-12-18T09:01:41.084Z,-11.46
2022-12-18T09:03:17.687Z,-11.72
2022-12-18T09:04:55.409Z,-11.59
2022-12-18T09:06:28.933Z,-11.67
2022-12-18T09:08:00.478Z,-11.74
2022-12-18T09:09:32.154Z,-11.61
2022-12-18T09:11:04.309Z,-11.51
2022-12-18T09:12:35.879Z,-11.37
2022-12-18T09:14:07.631Z,-11.29
2022-12-18T09:15:43.884Z,-11.30
2022-12-18T09:17:15.646Z,-11.49
2022-12-18T09:18:48.448Z,-11.44
2022-12-18T09:20:20.151Z,-11.41
2022-12-18T09:21:51.760Z,-11.45
2022-12-18T09:23:23.436Z,-11.49
2022-12-18T09:24:55.219Z,-11.47
2022-12-18T09:26:27.816Z,-11.48
2022-12-18T09:28:11.794Z,-11.45
2022-12-18T09:29:43.453Z,-11.42
2022-12-18T09:31:15.148Z,-11.36
2022-12-18T09:32:46.778Z,-11.30
2022-12-18T09:34:18.627Z,-11.13
2022-12-18T09:35:50.357Z,-11.01
2022-12-18T09:37:21.980Z,-10.97
2022-12-18T09:38:54.250Z,-10.90
2022-12-18T09:40:33.784Z,-10.82
2022-12-18T09:42:05.721Z,-10.78
2022-12-18T09:43:43.610Z,-10.81
2022-12-18T09:45:17.015Z,-10.95
2022-12-18T09:47:08.422Z,-10.86
2022-12-18T09:48:43.993Z,-10.82
2022-12-18T09:50:30.576Z,-10.79
2022-12-18T09:52:12.658Z,-10.75
2022-12-18T09:54:07.807Z,-10.72
2022-12-18T09:55:43.926Z,-10.58
2022-12-18T09:57:21.312Z,-10.52
2022-12-18T09:58:59.880Z,-10.52
2022-12-18T10:00:31.852Z,-10.36
2022-12-18T10:02:14.673Z,-10.38
2022-12-18T10:03:46.328Z,-10.36
2022-12-18T10:05:40.556Z,-10.33
2022-12-18T10:07:33.615Z,-10.19
2022-12-18T10:09:33.484Z,-10.17
2022-12-18T10:11:19.631Z,-10.29
2022-12-18T10:13:32.695Z,-10.13
2022-12-18T10:15:36.377Z,-10.09
2022-12-18T10:17:22.200Z,-10.01
2022-12-18T10:19:10.571Z,-10.01
2022-12-18T10:20:47.184Z,-10.02
2022-12-18T10:22:44.434Z,-10.02
2022-12-18T10:24:29.715Z,-10.01
2022-12-18T10:26:11.488Z,-9.99
2022-12-18T10:27:43.163Z,-10.07
2022-12-18T10:29:16.620Z,-10.16
2022-12-18T10:30:48.573Z,-10.08
2022-12-18T10:32:23.266Z,-9.99
2022-12-18T10:33:56.260Z,-10.00
2022-12-18T10:35:29.750Z,-10.11
2022-12-18T10:37:03.032Z,-10.12
2022-12-18T10:38:35.636Z,-9.92
2022-12-18T10:40:22.386Z,-9.68
2022-12-18T10:42:18.630Z,-9.63
2022-12-18T10:44:18.827Z,-9.51
2022-12-18T10:46:15.851Z,-9.29
2022-12-18T10:47:50.191Z,-9.24
2022-12-18T10:49:30.504Z,-9.26
2022-12-18T10:51:12.340Z,-9.29
2022-12-18T10:52:47.805Z,-9.14
2022-12-18T10:54:23.548Z,-8.97
2022-12-18T10:55:58.949Z,-8.90
2022-12-18T10:57:32.247Z,-8.69
2022-12-18T10:59:06.978Z,-8.72
2022-12-18T11:00:38.822Z,-8.51
2022-12-18T11:02:28.474Z,-8.29
2022-12-18T11:04:08.605Z,-8.46
2022-12-18T11:05:40.390Z,-8.74
2022-12-18T11:07:12.041Z,-8.15
2022-12-18T11:08:57.658Z,-6.10
2022-12-18T11:10:38.626Z,-3.74
2022-12-18T11:12:19.516Z,-2.07
2022-12-18T11:14:03.328Z,-1.04
2022-12-18T11:15:35.238Z,-0.04
2022-12-18T11:17:26.192Z,0.68
2022-12-18T11:19:26.523Z,0.71
2022-12-18T11:21:07.419Z,0.48
2022-12-18T11:22:41.782Z,1.41
2022-12-18T11:24:23.330Z,0.66
2022-12-18T11:26:02.864Z,-1.58
2022-12-18T11:27:38.895Z,-0.57
2022-12-18T11:29:16.831Z,-2.08
2022-12-18T11:30:49.809Z,-4.36
2022-12-18T11:32:33.189Z,-5.37
2022-12-18T11:34:28.105Z,-5.77
2022-12-18T11:36:03.857Z,-5.58
2022-12-18T11:37:37.228Z,-2.91
2022-12-18T11:39:18.368Z,0.27
2022-12-18T11:40:59.318Z,1.43
2022-12-18T11:42:42.446Z,-0.02
2022-12-18T11:44:19.243Z,-2.58
2022-12-18T11:46:00.929Z,-4.35
2022-12-18T11:47:41.663Z,-5.29
2022-12-18T11:49:27.915Z,-5.17
2022-12-18T11:51:06.404Z,-5.45
2022-12-18T11:52:41.472Z,-5.48
2022-12-18T11:54:17.296Z,-5.74
2022-12-18T11:56:26.497Z,-6.10
2022-12-18T11:58:18.290Z,-6.24
2022-12-18T12:00:08.564Z,-6.29
2022-12-18T12:01:56.301Z,-6.08
2022-12-18T12:03:49.600Z,-6.05
2022-12-18T12:05:33.265Z,-6.05
2022-12-18T12:07:10.628Z,-6.20
2022-12-18T12:08:45.520Z,-6.08
2022-12-18T12:10:32.229Z,-6.03
2022-12-18T12:12:21.724Z,-5.86
2022-12-18T12:14:06.235Z,-5.82
2022-12-18T12:16:18.109Z,-5.81
2022-12-18T12:17:49.650Z,-5.74
2022-12-18T12:19:56.193Z,-5.65
2022-12-18T12:21:33.817Z,-5.60
2022-12-18T12:23:23.551Z,-5.59
2022-12-18T12:25:15.111Z,-5.65
2022-12-18T12:27:24.073Z,-5.54
2022-12-18T12:29:05.471Z,-5.46
2022-12-18T12:31:27.229Z,-5.54
2022-12-18T12:33:13.857Z,-5.61
2022-12-18T12:35:19.737Z,-5.58
2022-12-18T12:37:10.007Z,-5.51
2022-12-18T12:38:51.556Z,-5.43
2022-12-18T12:40:52.069Z,-5.41
2022-12-18T12:43:02.627Z,-5.43
2022-12-18T12:44:45.381Z,-5.47
2022-12-18T12:46:23.904Z,-5.56
2022-12-18T12:47:58.718Z,-5.57
2022-12-18T12:51:36.834Z,-5.56
2022-12-18T12:53:24.537Z,-5.52
2022-12-18T12:54:57.799Z,-5.70
2022-12-18T12:56:52.384Z,-5.69
2022-12-18T12:58:49.082Z,-5.69
2022-12-18T13:00:20.991Z,-5.62
2022-12-18T13:02:16.906Z,-5.66
2022-12-18T13:04:21.778Z,-5.85
2022-12-18T13:06:01.085Z,-5.96
2022-12-18T13:07:40.928Z,-5.91
2022-12-18T13:09:12.621Z,-6.21
2022-12-18T13:10:44.423Z,-6.30
2022-12-18T13:12:36.009Z,-6.18
2022-12-18T13:13:43.500Z,-5.62
2022-12-18T13:14:30.029Z,-5.96
2022-12-18T13:16:09.259Z,-5.89
2022-12-18T13:17:40.975Z,-5.83
2022-12-18T13:19:23.111Z,-5.83
2022-12-18T13:20:58.558Z,-6.03
2022-12-18T13:22:36.020Z,-6.04
2022-12-18T13:24:22.365Z,-6.15
2022-12-18T13:25:58.436Z,-6.03
2022-12-18T13:27:45.125Z,-6.09
2022-12-18T13:29:55.365Z,-6.16
2022-12-18T13:31:42.222Z,-6.18
2022-12-18T13:33:14.361Z,-6.29
2022-12-18T13:34:46.055Z,-6.26
2022-12-18T13:36:23.637Z,-6.26
2022-12-18T13:37:56.439Z,-6.37
2022-12-18T13:39:35.971Z,-6.58
2022-12-18T13:41:14.509Z,-6.55
2022-12-18T13:43:06.708Z,-6.42
2022-12-18T13:44:44.425Z,-6.29
2022-12-18T13:46:30.293Z,-6.28
2022-12-18T13:48:02.075Z,-6.30
2022-12-18T13:49:42.246Z,-6.38
2022-12-18T13:51:19.028Z,-6.30
2022-12-18T13:52:53.983Z,-6.23
2022-12-18T13:54:41.379Z,-6.18
2022-12-18T13:56:24.441Z,-6.24
2022-12-18T13:58:06.798Z,-6.34
2022-12-18T13:59:43.429Z,-6.27
2022-12-18T14:01:25.077Z,-6.26
2022-12-18T14:02:58.996Z,-6.34
2022-12-18T14:04:32.332Z,-6.37
2022-12-18T14:06:08.652Z,-6.40
2022-12-18T14:07:45.143Z,-6.42
2022-12-18T14:09:27.511Z,-6.38
2022-12-18T14:10:59.428Z,-6.33
2022-12-18T14:13:05.848Z,-6.32
2022-12-18T14:14:38.151Z,-6.33
2022-12-18T14:16:15.433Z,-6.35
2022-12-18T14:17:48.426Z,-6.35
2022-12-18T14:19:20.412Z,-6.36
2022-12-18T14:20:56.757Z,-6.29
2022-12-18T14:22:30.410Z,-6.10
2022-12-18T14:24:22.838Z,-6.22
2022-12-18T14:25:54.426Z,-6.27
2022-12-18T14:27:27.157Z,-6.28
2022-12-18T14:29:24.049Z,-6.14
2022-12-18T14:30:57.398Z,-6.18
2022-12-18T14:32:29.155Z,-6.19
2022-12-18T14:34:03.879Z,-6.20
2022-12-18T14:35:54.507Z,-6.15
2022-12-18T14:37:28.310Z,-6.08
2022-12-18T14:39:00.359Z,-6.10
2022-12-18T14:40:32.000Z,-6.09
2022-12-18T14:42:03.815Z,-6.02
2022-12-18T14:43:41.518Z,-6.04
2022-12-18T14:45:41.806Z,-6.05
2022-12-18T14:47:17.041Z,-5.99
2022-12-18T14:48:49.296Z,-5.96
2022-12-18T14:50:21.022Z,-5.94
2022-12-18T14:52:01.325Z,-5.92
2022-12-18T14:53:49.144Z,-5.98
2022-12-18T14:55:23.970Z,-6.04
2022-12-18T14:57:03.692Z,-6.09
2022-12-18T14:58:35.385Z,-6.16
2022-12-18T15:00:16.558Z,-6.18
2022-12-18T15:02:04.322Z,-6.14
2022-12-18T15:03:48.046Z,-6.07
2022-12-18T15:05:28.582Z,-6.23
2022-12-18T15:07:14.741Z,-6.31
2022-12-18T15:08:46.519Z,-6.37
2022-12-18T15:10:28.118Z,-6.41
2022-12-18T15:12:02.176Z,-6.48
2022-12-18T15:13:33.837Z,-6.48
2022-12-18T15:15:40.299Z,-6.45
2022-12-18T15:17:23.862Z,-6.51
2022-12-18T15:18:57.363Z,-6.53
2022-12-18T15:20:32.598Z,-6.56
2022-12-18T15:22:06.547Z,-6.61
2022-12-18T15:23:51.863Z,-6.62
2022-12-18T15:25:37.676Z,-6.66
2022-12-18T15:27:26.264Z,-6.71
2022-12-18T15:29:00.927Z,-6.70
2022-12-18T15:30:32.598Z,-6.69
2022-12-18T15:32:06.651Z,-6.70
2022-12-18T15:33:53.931Z,-6.73
2022-12-18T15:35:26.181Z,-6.73
2022-12-18T15:36:57.924Z,-6.70
2022-12-18T15:38:29.627Z,-6.67
2022-12-18T15:40:01.262Z,-6.72
2022-12-18T15:41:36.021Z,-6.74
2022-12-18T15:43:28.807Z,-6.78
2022-12-18T15:45:00.392Z,-6.73
2022-12-18T15:46:32.441Z,-6.76
2022-12-18T15:48:22.921Z,-6.88
2022-12-18T15:49:54.504Z,-6.99
2022-12-18T15:51:30.737Z,-7.06
2022-12-18T15:53:02.347Z,-6.96
2022-12-18T15:54:53.211Z,-6.88
2022-12-18T15:56:43.867Z,-6.97
2022-12-18T15:58:16.381Z,-7.00
2022-12-18T15:59:48.120Z,-7.11
2022-12-18T16:01:22.917Z,-7.14
2022-12-18T16:02:54.976Z,-7.14
2022-12-18T16:04:26.731Z,-7.13
2022-12-18T16:06:01.311Z,-7.16
2022-12-18T16:07:33.952Z,-7.11
2022-12-18T16:09:06.085Z,-7.08
2022-12-18T16:10:37.663Z,-7.08
2022-12-18T16:12:17.960Z,-6.95
2022-12-18T16:13:50.332Z,-6.83
2022-12-18T16:15:24.955Z,-6.88
2022-12-18T16:17:04.073Z,-6.85
2022-12-18T16:18:35.795Z,-6.94
2022-12-18T16:20:19.145Z,-6.98
2022-12-18T16:21:53.314Z,-6.94
2022-12-18T16:23:25.416Z,-7.01
2022-12-18T16:24:58.004Z,-7.07
2022-12-18T16:26:32.692Z,-7.06
2022-12-18T16:28:04.618Z,-7.02
2022-12-18T16:29:36.696Z,-7.01
2022-12-18T16:31:12.199Z,-6.93
2022-12-18T16:32:44.437Z,-7.01
2022-12-18T16:34:26.909Z,-7.01
2022-12-18T16:36:00.494Z,-7.02
2022-12-18T16:37:32.024Z,-6.98
2022-12-18T16:39:03.651Z,-6.95
2022-12-18T16:40:55.361Z,-6.93
2022-12-18T16:42:26.983Z,-6.87
2022-12-18T16:43:59.337Z,-6.84
2022-12-18T16:45:34.152Z,-6.84
2022-12-18T16:47:05.925Z,-6.71
2022-12-18T16:48:39.959Z,-6.68
2022-12-18T16:50:12.137Z,-6.73
2022-12-18T16:51:44.715Z,-6.76
2022-12-18T16:53:16.348Z,-6.81
2022-12-18T16:54:48.492Z,-6.75
2022-12-18T16:56:20.159Z,-6.82
2022-12-18T16:57:51.829Z,-6.84
2022-12-18T16:59:23.601Z,-6.81
2022-12-18T17:00:55.434Z,-6.82
2022-12-18T17:02:28.235Z,-6.87
2022-12-18T17:04:02.925Z,-6.83
2022-12-18T17:05:34.736Z,-6.78
2022-12-18T17:07:06.482Z,-6.74
2022-12-18T17:08:38.173Z,-6.74
2022-12-18T17:10:10.105Z,-6.69
2022-12-18T17:11:42.015Z,-6.68
2022-12-18T17:13:13.626Z,-6.70
2022-12-18T17:14:45.422Z,-6.61
2022-12-18T17:16:20.161Z,-6.62
2022-12-18T17:17:55.595Z,-6.58
2022-12-18T17:19:29.325Z,-6.61
2022-12-18T17:21:02.331Z,-6.61
2022-12-18T17:22:33.912Z,-6.60
2022-12-18T17:24:06.121Z,-6.59
2022-12-18T17:25:40.500Z,-6.60
2022-12-18T17:27:13.176Z,-6.54
2022-12-18T17:28:44.869Z,-6.44
2022-12-18T17:30:16.508Z,-6.51
2022-12-18T17:31:48.475Z,-6.47
2022-12-18T17:33:20.807Z,-6.47
2022-12-18T17:34:52.572Z,-6.55
2022-12-18T17:36:25.237Z,-6.56
2022-12-18T17:37:56.872Z,-6.56
2022-12-18T17:39:28.844Z,-6.50
2022-12-18T17:41:12.029Z,-6.48
2022-12-18T17:42:43.867Z,-6.52
2022-12-18T17:44:16.582Z,-6.56
2022-12-18T17:45:48.194Z,-6.68
2022-12-18T17:47:20.377Z,-6.74
2022-12-18T17:48:52.598Z,-6.70
2022-12-18T17:50:24.384Z,-6.56
2022-12-18T17:51:56.192Z,-6.60
2022-12-18T17:53:27.728Z,-6.56
2022-12-18T17:54:59.541Z,-6.46
2022-12-18T17:56:31.270Z,-6.49
2022-12-18T17:58:02.991Z,-6.53
2022-12-18T17:59:34.746Z,-6.55
2022-12-18T18:01:06.762Z,-6.43
2022-12-18T18:02:38.601Z,-6.46
2022-12-18T18:04:11.370Z,-6.48
2022-12-18T18:05:43.107Z,-6.52
2022-12-18T18:07:14.832Z,-6.57
2022-12-18T18:08:46.608Z,-6.60
2022-12-18T18:10:18.199Z,-6.63
2022-12-18T18:12:08.512Z,-6.65
2022-12-18T18:13:58.369Z,-6.60
2022-12-18T18:15:29.997Z,-6.52
2022-12-18T18:17:04.931Z,-6.55
2022-12-18T18:18:37.557Z,-6.54
2022-12-18T18:20:09.809Z,-6.52
2022-12-18T18:21:44.699Z,-6.54
2022-12-18T18:23:16.831Z,-6.66
2022-12-18T18:24:48.584Z,-6.68
2022-12-18T18:26:21.115Z,-6.72
2022-12-18T18:27:52.820Z,-6.69
2022-12-18T18:29:26.978Z,-6.64
2022-12-18T18:31:05.152Z,-6.67
2022-12-18T18:32:39.619Z,-6.68
2022-12-18T18:34:22.200Z,-6.58
2022-12-18T18:35:54.636Z,-6.61
2022-12-18T18:37:26.528Z,-6.64
2022-12-18T18:39:01.364Z,-6.58
2022-12-18T18:40:33.152Z,-6.55
2022-12-18T18:42:04.946Z,-6.58
2022-12-18T18:43:37.015Z,-6.58
2022-12-18T18:45:09.274Z,-6.60
2022-12-18T18:46:40.944Z,-6.58
2022-12-18T18:48:14.038Z,-6.54
2022-12-18T18:49:45.797Z,-6.50
2022-12-18T18:51:21.976Z,-6.44
2022-12-18T18:52:54.055Z,-6.40
2022-12-18T18:54:26.168Z,-6.28
2022-12-18T18:56:34.858Z,-6.18
2022-12-18T18:57:52.347Z,-6.11
2022-12-18T18:59:24.435Z,-6.08
2022-12-18T19:01:10.495Z,-6.10
2022-12-18T19:02:42.382Z,-6.09
2022-12-18T19:04:14.041Z,-6.05
2022-12-18T19:05:51.883Z,-6.05
2022-12-18T19:07:30.436Z,-5.99
2022-12-18T19:09:04.937Z,-5.99
2022-12-18T19:10:40.693Z,-6.02
2022-12-18T19:12:30.761Z,-6.04
2022-12-18T19:14:05.779Z,-6.03
2022-12-18T19:15:37.411Z,-5.99
2022-12-18T19:17:11.129Z,-6.02
2022-12-18T19:18:43.491Z,-6.05
2022-12-18T19:20:15.869Z,-6.08
2022-12-18T19:21:47.971Z,-6.16
2022-12-18T19:23:19.731Z,-6.32
2022-12-18T19:24:51.576Z,-6.27
2022-12-18T19:26:30.399Z,-6.31
2022-12-18T19:28:02.014Z,-6.43
2022-12-18T19:29:36.789Z,-6.47
2022-12-18T19:31:13.195Z,-6.44
2022-12-18T19:32:44.937Z,-6.47
2022-12-18T19:34:16.558Z,-6.46
2022-12-18T19:35:48.408Z,-6.45
2022-12-18T19:37:19.947Z,-6.47
2022-12-18T19:38:53.695Z,-6.49
2022-12-18T19:40:25.495Z,-6.53
2022-12-18T19:41:57.971Z,-6.51
2022-12-18T19:43:29.624Z,-6.44
2022-12-18T19:45:01.393Z,-6.32
2022-12-18T19:46:33.458Z,-6.32
2022-12-18T19:48:06.857Z,-6.32
2022-12-18T19:49:38.903Z,-6.33
2022-12-18T19:51:17.160Z,-6.34
2022-12-18T19:52:48.945Z,-6.27
2022-12-18T19:54:20.649Z,-6.29
2022-12-18T19:55:52.420Z,-6.23
2022-12-18T19:57:24.133Z,-6.20
2022-12-18T19:58:56.085Z,-6.19
2022-12-18T20:00:27.696Z,-6.19
2022-12-18T20:01:59.560Z,-6.18
2022-12-18T20:03:32.770Z,-6.15
2022-12-18T20:05:10.781Z,-6.12
2022-12-18T20:06:50.650Z,-6.09
2022-12-18T20:08:22.733Z,-6.06
2022-12-18T20:10:01.425Z,-6.04
2022-12-18T20:11:41.578Z,-6.00
2022-12-18T20:13:14.164Z,-5.98
2022-12-18T20:14:46.683Z,-5.92
2022-12-18T20:16:18.391Z,-5.90
2022-12-18T20:17:50.054Z,-5.90
2022-12-18T20:19:22.406Z,-5.89
2022-12-18T20:20:54.542Z,-5.89
2022-12-18T20:22:28.253Z,-5.91
2022-12-18T20:24:01.239Z,-5.91
2022-12-18T20:25:32.953Z,-5.91